Time;durP1;ratioP1;P1;durP2;ratioP2;P2;SDS_P1;SDS_P2;PMS_P1;PMS_P2;Temp;Humidity;BMP_temperature;BMP_pressure;BME280_temperature;BME280_humidity;BME280_pressure;Samples;Min_cycle;Max_cycle;Signal;HPM_P1;HPM_P2
2022/02/20 00:01:47;;;;;;;;;;;9.20;96.20;;;;;;5078343;28;19956;-83
2022/02/20 00:04:13;;;;;;;;;;;9.20;96.10;;;;;;5069419;28;19912;-81
2022/02/20 00:06:39;;;;;;;;;;;9.20;96.40;;;;;;5078445;28;19991;-82
2022/02/20 00:09:04;;;;;;;;;;;9.20;96.60;;;;;;5078310;28;19916;-83
2022/02/20 00:11:30;;;;;;;;;;;9.20;96.50;;;;;;5078284;28;19908;-82
2022/02/20 00:13:56;;;;;;;;;;;9.10;96.30;;;;;;5078186;28;19914;-83
2022/02/20 00:16:22;;;;;;;;;;;9.20;96.50;;;;;;5078364;28;20437;-82
2022/02/20 00:18:49;;;;;;;;;;;9.10;96.30;;;;;;5077830;28;20286;-83
2022/02/20 00:21:15;;;;;;;;;;;9.10;96.40;;;;;;5078198;28;20379;-83
2022/02/20 00:23:40;;;;;;;;;;;9.20;96.70;;;;;;5078090;28;19908;-82
2022/02/20 00:26:06;;;;;;;;;;;9.20;96.90;;;;;;5077942;28;19966;-83
2022/02/20 00:28:32;;;;;;;;;;;9.20;96.80;;;;;;5078201;28;19948;-83
2022/02/20 00:30:57;;;;;;;;;;;9.20;96.80;;;;;;5077553;28;19909;-83
2022/02/20 00:33:23;;;;;;;;;;;9.20;97.10;;;;;;5059845;28;19994;-81
2022/02/20 00:35:49;;;;;;;;;;;9.20;96.80;;;;;;5059826;28;19921;-83
2022/02/20 00:38:15;;;;;;;;;;;9.10;96.50;;;;;;5078041;28;19912;-82
2022/02/20 00:40:41;;;;;;;;;;;9.10;96.70;;;;;;5077679;28;19931;-82
2022/02/20 00:43:07;;;;;;;;;;;9.20;96.90;;;;;;5077661;28;19964;-82
2022/02/20 00:45:32;;;;;;;;;;;9.20;96.90;;;;;;5077708;28;20388;-82
2022/02/20 00:47:58;;;;;;;;;;;9.20;96.80;;;;;;5046305;28;19912;-83
2022/02/20 00:50:25;;;;;;;;;;;9.20;96.40;;;;;;5077919;28;19944;-83
2022/02/20 00:52:50;;;;;;;;;;;9.20;96.20;;;;;;5064646;28;19992;-83
2022/02/20 00:55:16;;;;;;;;;;;9.20;96.00;;;;;;5077477;28;19944;-83
2022/02/20 00:57:42;;;;;;;;;;;9.10;95.70;;;;;;5077781;28;19963;-83
2022/02/20 01:00:09;;;;;;;;;;;9.10;95.50;;;;;;5077695;28;19915;-83
2022/02/20 01:02:35;;;;;;;;;;;9.00;95.30;;;;;;5077527;28;19908;-83
2022/02/20 01:05:00;;;;;;;;;;;9.00;95.30;;;;;;5073673;28;19908;-82
2022/02/20 01:07:26;;;;;;;;;;;9.00;95.30;;;;;;5077784;28;19930;-83
2022/02/20 01:09:52;;;;;;;;;;;8.90;95.10;;;;;;5077654;28;19909;-82
2022/02/20 01:12:17;;;;;;;;;;;8.90;95.30;;;;;;5059487;28;19970;-83
2022/02/20 01:14:46;;;;;;;;;;;8.80;95.00;;;;;;5077525;28;20291;-83
2022/02/20 01:17:12;;;;;;;;;;;8.90;95.10;;;;;;5077279;28;19908;-83
2022/02/20 01:19:38;;;;;;;;;;;8.80;94.80;;;;;;5077455;28;19908;-83
2022/02/20 01:22:04;;;;;;;;;;;8.80;94.90;;;;;;5077523;28;19908;-83
2022/02/20 01:24:29;;;;;;;;;;;8.80;94.70;;;;;;5077489;28;19909;-83
2022/02/20 01:26:55;;;;;;;;;;;8.80;94.70;;;;;;5077585;28;19914;-83
2022/02/20 01:29:22;;;;;;;;;;;8.70;94.90;;;;;;5059295;28;19997;-83
2022/02/20 01:31:48;;;;;;;;;;;8.70;94.80;;;;;;5077288;28;19912;-82
2022/02/20 01:34:14;;;;;;;;;;;8.70;95.30;;;;;;5077145;28;19912;-83
2022/02/20 01:36:40;;;;;;;;;;;8.70;95.30;;;;;;5077609;28;19962;-83
2022/02/20 01:39:05;;;;;;;;;;;8.70;95.30;;;;;;5076932;28;19934;-82
2022/02/20 01:41:31;;;;;;;;;;;8.60;95.10;;;;;;5077472;28;19908;-83
2022/02/20 01:43:57;;;;;;;;;;;8.60;95.00;;;;;;5061451;28;19974;-82
2022/02/20 01:46:22;;;;;;;;;;;8.70;95.40;;;;;;5074705;28;20288;-82
2022/02/20 01:48:48;;;;;;;;;;;8.60;95.60;;;;;;5074163;28;19934;-82
2022/02/20 01:51:14;;;;;;;;;;;8.60;95.50;;;;;;5081302;28;19916;-82
2022/02/20 01:53:40;;;;;;;;;;;8.60;95.40;;;;;;5080922;28;19916;-82
2022/02/20 01:56:06;;;;;;;;;;;8.60;95.20;;;;;;5080867;28;20001;-82
2022/02/20 01:58:32;;;;;;;;;;;8.60;95.00;;;;;;5062740;28;20006;-82
2022/02/20 02:00:59;;;;;;;;;;;8.60;94.80;;;;;;5081017;28;20287;-83
2022/02/20 02:03:25;;;;;;;;;;;8.60;94.40;;;;;;5080373;28;20012;-83
2022/02/20 02:05:50;;;;;;;;;;;8.60;94.20;;;;;;5080920;28;19940;-83
2022/02/20 02:08:17;;;;;;;;;;;8.60;94.10;;;;;;5080629;28;19909;-83
2022/02/20 02:10:43;;;;;;;;;;;8.60;94.60;;;;;;5080684;28;19919;-82
2022/02/20 02:13:09;;;;;;;;;;;8.60;95.00;;;;;;5080641;28;19908;-83
2022/02/20 02:15:35;;;;;;;;;;;8.60;95.40;;;;;;5080543;28;19912;-83
2022/02/20 02:18:00;;;;;;;;;;;8.60;95.30;;;;;;5080296;28;19909;-82
2022/02/20 02:20:26;;;;;;;;;;;8.60;95.60;;;;;;5080518;28;19908;-82
2022/02/20 02:22:52;;;;;;;;;;;8.60;95.70;;;;;;5080433;28;19915;-83
2022/02/20 02:25:18;;;;;;;;;;;8.60;96.10;;;;;;5080303;28;20006;-83
2022/02/20 02:27:43;;;;;;;;;;;8.60;96.10;;;;;;5080239;28;19909;-82
2022/02/20 02:30:10;;;;;;;;;;;8.60;96.20;;;;;;5080349;28;19909;-82
2022/02/20 02:32:36;;;;;;;;;;;8.70;96.50;;;;;;5079894;28;19908;-83
2022/02/20 02:35:02;;;;;;;;;;;8.70;96.80;;;;;;5080202;28;19920;-82
2022/02/20 02:37:27;;;;;;;;;;;8.70;96.80;;;;;;5080091;28;19958;-82
2022/02/20 02:39:53;;;;;;;;;;;8.80;97.10;;;;;;5079894;28;19916;-82
2022/02/20 02:42:19;;;;;;;;;;;8.80;97.20;;;;;;5080071;28;19915;-82
2022/02/20 02:44:44;;;;;;;;;;;8.80;97.30;;;;;;5061813;28;20294;-82
2022/02/20 02:47:10;;;;;;;;;;;8.90;97.70;;;;;;5066563;28;20431;-83
2022/02/20 02:49:37;;;;;;;;;;;8.90;97.70;;;;;;5079492;28;19987;-82
2022/02/20 02:52:03;;;;;;;;;;;8.90;97.60;;;;;;5079855;28;20333;-82
2022/02/20 02:54:29;;;;;;;;;;;9.10;97.70;;;;;;5079259;28;20358;-83
2022/02/20 02:56:54;;;;;;;;;;;9.10;97.70;;;;;;5079698;28;19908;-82
2022/02/20 02:59:20;;;;;;;;;;;9.10;97.40;;;;;;5079889;28;19916;-83
2022/02/20 03:01:46;;;;;;;;;;;9.20;97.10;;;;;;5079272;28;19908;-82
2022/02/20 03:04:12;;;;;;;;;;;9.10;97.00;;;;;;5079599;28;19929;-83
2022/02/20 03:06:38;;;;;;;;;;;9.20;97.50;;;;;;5079404;28;20331;-82
2022/02/20 03:09:05;;;;;;;;;;;9.20;97.50;;;;;;5079618;28;20348;-83
2022/02/20 03:11:32;;;;;;;;;;;9.20;97.40;;;;;;5079363;28;20252;-82
2022/02/20 03:13:57;;;;;;;;;;;9.20;97.30;;;;;;5079444;28;19915;-82
2022/02/20 03:16:23;;;;;;;;;;;9.20;97.30;;;;;;5079283;28;20387;-83
2022/02/20 03:18:49;;;;;;;;;;;9.10;97.10;;;;;;5079030;28;19908;-83
2022/02/20 03:21:14;;;;;;;;;;;9.20;97.20;;;;;;5079190;28;19915;-82
2022/02/20 03:23:40;;;;;;;;;;;9.20;97.20;;;;;;5079286;28;19908;-82
2022/02/20 03:26:06;;;;;;;;;;;9.20;97.40;;;;;;5078952;28;19909;-82
2022/02/20 03:28:31;;;;;;;;;;;9.20;97.60;;;;;;5079469;28;19909;-83
2022/02/20 03:30:57;;;;;;;;;;;9.20;97.50;;;;;;5079094;28;19909;-83
2022/02/20 03:33:24;;;;;;;;;;;9.20;97.10;;;;;;5078758;28;20347;-83
2022/02/20 03:35:50;;;;;;;;;;;9.20;97.20;;;;;;5078801;28;19912;-83
2022/02/20 03:38:15;;;;;;;;;;;9.20;97.30;;;;;;5079159;28;19916;-82
2022/02/20 03:40:41;;;;;;;;;;;9.20;97.40;;;;;;5078566;28;19908;-82
2022/02/20 03:43:07;;;;;;;;;;;9.20;97.40;;;;;;5078857;28;19923;-83
2022/02/20 03:45:32;;;;;;;;;;;9.20;97.40;;;;;;5078682;28;19912;-83
2022/02/20 03:47:58;;;;;;;;;;;9.20;97.20;;;;;;5078390;28;20398;-83
2022/02/20 03:50:25;;;;;;;;;;;9.10;96.90;;;;;;5078788;28;19995;-83
2022/02/20 03:52:51;;;;;;;;;;;9.20;96.80;;;;;;5078497;28;19908;-83
2022/02/20 03:55:17;;;;;;;;;;;9.20;96.60;;;;;;5078347;28;19982;-83
2022/02/20 03:57:43;;;;;;;;;;;9.30;96.70;;;;;;5078623;28;20545;-82
2022/02/20 04:00:10;;;;;;;;;;;9.30;96.90;;;;;;5078613;28;19916;-83
2022/02/20 04:02:39;;;;;;;;;;;9.40;97.00;;;;;;5078483;28;19944;-83
2022/02/20 04:05:05;;;;;;;;;;;9.40;96.70;;;;;;5077774;28;19916;-83
2022/02/20 04:07:31;;;;;;;;;;;9.40;96.70;;;;;;5060044;28;19976;-83
2022/02/20 04:09:57;;;;;;;;;;;9.40;96.40;;;;;;5078101;28;20384;-83
2022/02/20 04:12:22;;;;;;;;;;;9.50;96.60;;;;;;5078429;28;20378;-83
2022/02/20 04:14:48;;;;;;;;;;;9.50;96.20;;;;;;5078088;28;20775;-83
2022/02/20 04:17:14;;;;;;;;;;;9.50;95.90;;;;;;5077914;28;20002;-83
2022/02/20 04:19:39;;;;;;;;;;;9.60;95.90;;;;;;5078055;28;20027;-83
2022/02/20 04:22:05;;;;;;;;;;;9.60;96.00;;;;;;5078212;28;19908;-83
2022/02/20 04:24:31;;;;;;;;;;;9.60;95.90;;;;;;5077926;28;20375;-83
2022/02/20 04:26:56;;;;;;;;;;;9.60;95.60;;;;;;5078285;28;19909;-83
2022/02/20 04:29:22;;;;;;;;;;;9.60;95.40;;;;;;5077943;28;19909;-83
2022/02/20 04:31:47;;;;;;;;;;;9.60;95.70;;;;;;5077731;28;19919;-83
2022/02/20 04:34:13;;;;;;;;;;;9.70;96.10;;;;;;5077724;28;19913;-82
2022/02/20 04:36:39;;;;;;;;;;;9.70;96.10;;;;;;5078122;28;20053;-83
2022/02/20 04:39:05;;;;;;;;;;;9.80;96.40;;;;;;5077517;28;19909;-82
2022/02/20 04:41:31;;;;;;;;;;;9.80;96.60;;;;;;5078082;28;19915;-83
2022/02/20 04:43:57;;;;;;;;;;;9.80;96.80;;;;;;5077696;28;19955;-83
2022/02/20 04:46:23;;;;;;;;;;;9.80;96.70;;;;;;5071101;28;19913;-83
2022/02/20 04:48:49;;;;;;;;;;;9.90;96.60;;;;;;5070913;28;20382;-83
2022/02/20 04:51:14;;;;;;;;;;;9.80;96.40;;;;;;5077866;28;19908;-83
2022/02/20 04:53:40;;;;;;;;;;;9.90;96.60;;;;;;5077897;28;20330;-83
2022/02/20 04:56:06;;;;;;;;;;;9.90;96.60;;;;;;5064321;28;19919;-83
2022/02/20 04:58:32;;;;;;;;;;;9.90;96.40;;;;;;5077812;28;19912;-83
2022/02/20 05:00:57;;;;;;;;;;;10.00;96.40;;;;;;5064636;28;20050;-83
2022/02/20 05:03:23;;;;;;;;;;;10.10;96.30;;;;;;5077294;28;20042;-83
2022/02/20 05:05:49;;;;;;;;;;;10.10;96.40;;;;;;5077640;28;19908;-82
2022/02/20 05:08:14;;;;;;;;;;;10.10;96.50;;;;;;5077778;28;19916;-84
2022/02/20 05:10:40;;;;;;;;;;;10.20;96.40;;;;;;5077610;28;19914;-81
2022/02/20 05:13:06;;;;;;;;;;;10.30;96.60;;;;;;5077586;28;19961;-84
2022/02/20 05:15:32;;;;;;;;;;;10.30;96.80;;;;;;5077799;28;19952;-84
2022/02/20 05:17:58;;;;;;;;;;;10.30;96.80;;;;;;5079799;28;19916;-84
2022/02/20 05:20:23;;;;;;;;;;;10.40;97.50;;;;;;5081679;28;20367;-84
2022/02/20 05:22:49;;;;;;;;;;;10.40;97.40;;;;;;5081592;28;20360;-84
2022/02/20 05:25:16;;;;;;;;;;;10.40;97.50;;;;;;5081450;28;20383;-85
2022/02/20 05:27:45;;;;;;;;;;;10.40;98.00;;;;;;5081422;28;19916;-85
2022/02/20 05:30:11;;;;;;;;;;;10.40;98.00;;;;;;5081452;28;19908;-85
2022/02/20 05:32:37;;;;;;;;;;;10.30;97.80;;;;;;5080919;28;20031;-85
2022/02/20 05:35:03;;;;;;;;;;;10.30;97.60;;;;;;5081290;28;19955;-86
2022/02/20 05:37:29;;;;;;;;;;;10.30;97.50;;;;;;5081232;28;19954;-86
2022/02/20 05:39:54;;;;;;;;;;;10.30;97.50;;;;;;5080985;28;19913;-85
2022/02/20 05:42:20;;;;;;;;;;;10.40;97.70;;;;;;5081163;28;19909;-85
2022/02/20 05:44:45;;;;;;;;;;;10.30;97.40;;;;;;5080877;28;19966;-85
2022/02/20 05:47:13;;;;;;;;;;;10.30;97.60;;;;;;5067604;28;19909;-86
2022/02/20 05:49:39;;;;;;;;;;;10.30;97.30;;;;;;5067593;28;19913;-86
2022/02/20 05:52:05;;;;;;;;;;;10.30;97.20;;;;;;5081205;28;19947;-86
2022/02/20 05:54:30;;;;;;;;;;;10.30;97.00;;;;;;5080748;28;19919;-85
2022/02/20 05:56:56;;;;;;;;;;;10.30;97.00;;;;;;5080992;28;19923;-86
2022/02/20 05:59:21;;;;;;;;;;;10.30;96.70;;;;;;5067764;28;19916;-85
2022/02/20 06:01:47;;;;;;;;;;;10.30;96.70;;;;;;5080404;28;19999;-86
2022/02/20 06:04:13;;;;;;;;;;;10.30;96.80;;;;;;5076308;28;19958;-86
2022/02/20 06:06:38;;;;;;;;;;;10.30;96.80;;;;;;5080741;28;19908;-86
2022/02/20 06:09:04;;;;;;;;;;;10.30;96.70;;;;;;5080720;28;19958;-86
2022/02/20 06:11:30;;;;;;;;;;;10.40;96.50;;;;;;5080650;28;19915;-86
2022/02/20 06:13:56;;;;;;;;;;;10.30;96.40;;;;;;5082989;28;19915;-85
2022/02/20 06:16:22;;;;;;;;;;;10.40;96.30;;;;;;5087858;28;19916;-83
2022/02/20 06:18:47;;;;;;;;;;;10.40;96.50;;;;;;5053088;28;19931;-84
2022/02/20 06:21:13;;;;;;;;;;;10.40;96.30;;;;;;5085258;28;20382;-83
2022/02/20 06:23:39;;;;;;;;;;;10.40;96.20;;;;;;5080222;28;19909;-82
2022/02/20 06:26:06;;;;;;;;;;;10.40;96.30;;;;;;5075109;28;19917;-83
2022/02/20 06:28:31;;;;;;;;;;;10.40;96.30;;;;;;5079677;28;19908;-80
2022/02/20 06:30:57;;;;;;;;;;;10.30;96.10;;;;;;5079305;28;19912;-85
2022/02/20 06:33:23;;;;;;;;;;;10.30;96.10;;;;;;5079681;28;19913;-82
2022/02/20 06:35:48;;;;;;;;;;;10.40;96.30;;;;;;5078965;28;19917;-84
2022/02/20 06:38:14;;;;;;;;;;;10.40;96.10;;;;;;5079164;28;19914;-82
2022/02/20 06:40:40;;;;;;;;;;;10.40;96.00;;;;;;5071219;28;19912;-82
2022/02/20 06:43:05;;;;;;;;;;;10.30;95.60;;;;;;5078860;28;19925;-79
2022/02/20 06:45:31;;;;;;;;;;;10.40;95.90;;;;;;5079776;28;19999;-78
2022/02/20 06:47:57;;;;;;;;;;;10.50;96.10;;;;;;5076934;28;19947;-82
2022/02/20 06:50:22;;;;;;;;;;;10.50;95.90;;;;;;5080155;28;19912;-81
2022/02/20 06:52:48;;;;;;;;;;;10.60;95.90;;;;;;5071075;28;19959;-78
2022/02/20 06:55:14;;;;;;;;;;;10.50;95.60;;;;;;5079857;28;19912;-80
2022/02/20 06:57:40;;;;;;;;;;;10.60;95.90;;;;;;5079502;28;19920;-82
2022/02/20 07:00:10;;;;;;;;;;;10.60;95.60;;;;;;5073859;28;20382;-82
2022/02/20 07:02:38;;;;;;;;;;;10.70;95.40;;;;;;5076323;28;19912;-82
2022/02/20 07:05:05;;;;;;;;;;;10.60;95.40;;;;;;5079316;28;19908;-82
2022/02/20 07:07:31;;;;;;;;;;;10.70;95.20;;;;;;5079402;28;19958;-82
2022/02/20 07:09:56;;;;;;;;;;;10.70;95.30;;;;;;5061217;28;19908;-82
2022/02/20 07:12:22;;;;;;;;;;;10.70;95.20;;;;;;5079241;28;19909;-82
2022/02/20 07:14:48;;;;;;;;;;;10.70;95.10;;;;;;5080194;28;19916;-82
2022/02/20 07:17:13;;;;;;;;;;;10.70;95.10;;;;;;5076329;28;20351;-82
2022/02/20 07:19:39;;;;;;;;;;;10.70;94.90;;;;;;5060699;28;20390;-82
2022/02/20 07:22:05;;;;;;;;;;;10.70;95.00;;;;;;5056598;28;20007;-82
2022/02/20 07:24:31;;;;;;;;;;;10.70;94.90;;;;;;5060990;28;19948;-82
2022/02/20 07:26:56;;;;;;;;;;;10.60;94.80;;;;;;5066439;28;19910;-82
2022/02/20 07:29:22;;;;;;;;;;;10.60;94.90;;;;;;5078986;28;19912;-82
2022/02/20 07:31:48;;;;;;;;;;;10.60;94.80;;;;;;5078522;28;19955;-82
2022/02/20 07:34:14;;;;;;;;;;;10.60;95.10;;;;;;5078520;28;19908;-82
2022/02/20 07:36:41;;;;;;;;;;;10.60;95.20;;;;;;5078263;28;19972;-82
2022/02/20 07:39:11;;;;;;;;;;;10.70;95.10;;;;;;5077403;28;19940;-82
2022/02/20 07:41:37;;;;;;;;;;;10.70;95.00;;;;;;5075462;28;19938;-83
2022/02/20 07:44:03;;;;;;;;;;;10.70;94.90;;;;;;5078411;28;19928;-82
2022/02/20 07:46:29;;;;;;;;;;;10.80;95.00;;;;;;5074469;28;20307;-82
2022/02/20 07:48:57;;;;;;;;;;;10.80;94.70;;;;;;5078478;28;20050;-82
2022/02/20 07:51:23;;;;;;;;;;;10.90;94.60;;;;;;5077604;28;20346;-82
2022/02/20 07:53:49;;;;;;;;;;;10.90;94.60;;;;;;5070354;28;19916;-82
2022/02/20 07:56:16;;;;;;;;;;;10.90;94.50;;;;;;5077585;28;19916;-80
2022/02/20 07:58:42;;;;;;;;;;;11.00;94.50;;;;;;5078522;28;19909;-80
2022/02/20 08:01:07;;;;;;;;;;;11.00;94.20;;;;;;5078365;28;19909;-81
2022/02/20 08:03:33;;;;;;;;;;;11.00;94.10;;;;;;5077689;28;20311;-81
2022/02/20 08:06:00;;;;;;;;;;;11.00;94.00;;;;;;5077517;28;19920;-79
2022/02/20 08:08:26;;;;;;;;;;;11.10;94.10;;;;;;5078286;28;20356;-80
2022/02/20 08:10:52;;;;;;;;;;;11.10;94.00;;;;;;5078090;28;19931;-79
2022/02/20 08:13:17;;;;;;;;;;;11.20;93.80;;;;;;5056849;28;19912;-80
2022/02/20 08:15:43;;;;;;;;;;;11.20;93.70;;;;;;5081809;28;19916;-81
2022/02/20 08:18:09;;;;;;;;;;;11.30;93.70;;;;;;5077508;28;19916;-81
2022/02/20 08:20:34;;;;;;;;;;;11.30;93.60;;;;;;5070513;28;19909;-80
2022/02/20 08:23:00;;;;;;;;;;;11.30;93.40;;;;;;5073539;28;19908;-78
2022/02/20 08:25:26;;;;;;;;;;;11.30;93.30;;;;;;5078142;28;20363;-80
2022/02/20 08:27:51;;;;;;;;;;;11.30;93.10;;;;;;5063342;28;19913;-80
2022/02/20 08:30:17;;;;;;;;;;;11.40;93.00;;;;;;5070868;28;19973;-81
2022/02/20 08:32:42;;;;;;;;;;;11.50;93.00;;;;;;5075299;28;19916;-79
2022/02/20 08:35:09;;;;;;;;;;;11.50;92.80;;;;;;5055533;28;19917;-81
2022/02/20 08:37:40;;;;;;;;;;;11.60;92.60;;;;;;5075643;28;19913;-84
2022/02/20 08:40:06;;;;;;;;;;;11.70;92.40;;;;;;5068440;28;20011;-84
2022/02/20 08:42:31;;;;;;;;;;;11.80;92.20;;;;;;5074731;28;19909;-84
2022/02/20 08:44:57;;;;;;;;;;;11.90;92.00;;;;;;5077601;28;19920;-84
2022/02/20 08:47:23;;;;;;;;;;;11.90;91.90;;;;;;5063908;28;20349;-84
2022/02/20 08:49:48;;;;;;;;;;;11.90;91.80;;;;;;5059881;28;20734;-84
2022/02/20 08:52:14;;;;;;;;;;;12.00;91.70;;;;;;5077404;28;20003;-84
2022/02/20 08:54:40;;;;;;;;;;;12.10;91.60;;;;;;5077641;28;19965;-84
2022/02/20 08:57:08;;;;;;;;;;;12.10;91.40;;;;;;5077722;28;19912;-83
2022/02/20 08:59:34;;;;;;;;;;;12.30;91.40;;;;;;5077766;28;19932;-84
2022/02/20 09:02:00;;;;;;;;;;;12.40;91.20;;;;;;5077507;28;19909;-84
2022/02/20 09:04:25;;;;;;;;;;;12.50;91.10;;;;;;5059443;28;19943;-85
2022/02/20 09:06:51;;;;;;;;;;;12.80;90.50;;;;;;5077550;28;19913;-84
2022/02/20 09:09:17;;;;;;;;;;;13.00;90.00;;;;;;5077595;28;20054;-85
2022/02/20 09:11:43;;;;;;;;;;;13.20;88.80;;;;;;5077623;28;19909;-85
2022/02/20 09:14:09;;;;;;;;;;;13.40;88.90;;;;;;5077559;28;19908;-85
2022/02/20 09:16:35;;;;;;;;;;;13.80;87.80;;;;;;5077235;28;19944;-86
2022/02/20 09:19:03;;;;;;;;;;;14.30;87.50;;;;;;5077488;28;19915;-86
2022/02/20 09:21:30;;;;;;;;;;;14.90;84.70;;;;;;5077470;28;20376;-85
2022/02/20 09:23:56;;;;;;;;;;;15.50;82.10;;;;;;5077382;28;19916;-86
2022/02/20 09:26:22;;;;;;;;;;;15.90;82.20;;;;;;5077522;28;19912;-86
2022/02/20 09:28:47;;;;;;;;;;;16.40;79.10;;;;;;5077632;28;19954;-86
2022/02/20 09:31:13;;;;;;;;;;;17.00;75.70;;;;;;5077288;28;19912;-84
2022/02/20 09:33:39;;;;;;;;;;;17.30;72.00;;;;;;5077128;28;20364;-86
2022/02/20 09:36:08;;;;;;;;;;;17.60;74.50;;;;;;5077196;28;20427;-85
2022/02/20 09:38:36;;;;;;;;;;;17.80;71.50;;;;;;5077486;28;19909;-85
2022/02/20 09:41:05;;;;;;;;;;;17.90;68.80;;;;;;5077000;28;20264;-85
2022/02/20 09:43:33;;;;;;;;;;;17.80;67.90;;;;;;5077124;28;19927;-84
2022/02/20 09:45:58;;;;;;;;;;;17.60;69.20;;;;;;5073823;28;19915;-84
2022/02/20 09:48:24;;;;;;;;;;;17.50;68.30;;;;;;5067104;28;20348;-84
2022/02/20 09:50:50;;;;;;;;;;;17.60;69.60;;;;;;5077116;28;19954;-84
2022/02/20 09:53:15;;;;;;;;;;;17.70;70.50;;;;;;5059156;28;19909;-84
2022/02/20 09:55:45;;;;;;;;;;;17.80;70.10;;;;;;5076902;28;20273;-85
2022/02/20 09:58:12;;;;;;;;;;;17.90;69.50;;;;;;5077422;28;20003;-85
2022/02/20 10:00:48;;;;;;;;;;;18.00;67.60;;;;;;5077003;28;20256;-86
2022/02/20 10:03:27;;;;;;;;;;;18.20;67.40;;;;;;5076778;28;20394;-86
2022/02/20 10:05:53;;;;;;;;;;;18.60;69.80;;;;;;5069936;28;19909;-86
2022/02/20 10:08:19;;;;;;;;;;;18.90;66.60;;;;;;5080720;28;20011;-87
2022/02/20 10:10:45;;;;;;;;;;;18.90;65.80;;;;;;5080591;28;19947;-86
2022/02/20 10:13:10;;;;;;;;;;;18.80;64.60;;;;;;5080602;28;19908;-87
2022/02/20 10:15:40;;;;;;;;;;;18.60;65.00;;;;;;5080522;28;19920;-86
2022/02/20 10:18:10;;;;;;;;;;;18.30;65.90;;;;;;5080052;28;20349;-86
2022/02/20 10:20:36;;;;;;;;;;;18.10;66.50;;;;;;5081045;28;20379;-86
2022/02/20 10:23:06;;;;;;;;;;;18.00;67.10;;;;;;5080400;28;19934;-85
2022/02/20 10:25:31;;;;;;;;;;;17.90;66.80;;;;;;5080432;28;20349;-84
2022/02/20 10:27:57;;;;;;;;;;;17.80;65.60;;;;;;5080342;28;19944;-86
2022/02/20 10:30:27;;;;;;;;;;;17.80;66.30;;;;;;5080404;28;19965;-87
2022/02/20 10:33:15;;;;;;;;;;;17.90;66.50;;;;;;5079955;28;19916;-86
2022/02/20 10:35:42;;;;;;;;;;;18.00;66.40;;;;;;5080074;28;19912;-86
2022/02/20 10:38:09;;;;;;;;;;;18.10;66.60;;;;;;5080400;28;19909;-87
2022/02/20 10:40:35;;;;;;;;;;;18.40;67.60;;;;;;5079739;28;19908;-86
2022/02/20 10:43:02;;;;;;;;;;;18.60;65.50;;;;;;5080047;28;20359;-86
2022/02/20 10:45:33;;;;;;;;;;;18.70;65.20;;;;;;5079940;28;19915;-86
2022/02/20 10:48:00;;;;;;;;;;;18.70;65.80;;;;;;5066096;28;19908;-87
2022/02/20 10:50:26;;;;;;;;;;;18.40;63.80;;;;;;5061982;28;19908;-87
2022/02/20 10:53:07;;;;;;;;;;;18.50;66.80;;;;;;5066871;28;19920;-85
2022/02/20 10:55:37;;;;;;;;;;;18.30;65.50;;;;;;5061545;28;19919;-87
2022/02/20 10:58:10;;;;;;;;;;;18.20;65.30;;;;;;5079854;28;19962;-87
2022/02/20 11:00:44;;;;;;;;;;;18.20;66.40;;;;;;5079718;28;19912;-86
2022/02/20 11:03:12;;;;;;;;;;;18.10;65.20;;;;;;5076882;28;20270;-86
2022/02/20 11:05:38;;;;;;;;;;;18.20;65.80;;;;;;5078457;28;20426;-88
2022/02/20 11:08:04;;;;;;;;;;;18.30;66.30;;;;;;5079769;28;19971;-88
2022/02/20 11:10:30;;;;;;;;;;;18.30;67.30;;;;;;5061328;28;19959;-86
2022/02/20 11:12:56;;;;;;;;;;;18.10;66.60;;;;;;5079663;28;20310;-86
2022/02/20 11:15:22;;;;;;;;;;;18.00;66.50;;;;;;5079041;28;20367;-87
2022/02/20 11:17:50;;;;;;;;;;;17.80;66.50;;;;;;5079166;28;19909;-87
2022/02/20 11:20:16;;;;;;;;;;;17.60;66.40;;;;;;5079516;28;20291;-87
2022/02/20 11:22:45;;;;;;;;;;;17.50;67.10;;;;;;5079301;28;19915;-85
2022/02/20 11:25:12;;;;;;;;;;;17.30;67.30;;;;;;5079234;28;19916;-85
2022/02/20 11:27:41;;;;;;;;;;;17.20;68.30;;;;;;5079331;28;19908;-85
2022/02/20 11:30:07;;;;;;;;;;;17.00;68.30;;;;;;5079234;28;20007;-86
2022/02/20 11:32:35;;;;;;;;;;;16.90;69.00;;;;;;5078767;28;19944;-87
2022/02/20 11:35:01;;;;;;;;;;;16.90;69.90;;;;;;5079033;28;19920;-87
2022/02/20 11:37:45;;;;;;;;;;;17.00;70.30;;;;;;5078962;28;19908;-87
2022/02/20 11:40:14;;;;;;;;;;;17.00;70.20;;;;;;5078769;28;20371;-86
2022/02/20 11:43:00;;;;;;;;;;;17.10;70.80;;;;;;5078595;28;19916;-87
2022/02/20 11:45:29;;;;;;;;;;;17.20;70.60;;;;;;5078542;28;19912;-87
2022/02/20 11:48:04;;;;;;;;;;;17.10;68.80;;;;;;5065105;28;20386;-87
2022/02/20 11:50:32;;;;;;;;;;;16.80;69.10;;;;;;5078650;28;19909;-86
2022/02/20 11:52:58;;;;;;;;;;;16.70;69.60;;;;;;5078833;28;19909;-86
2022/02/20 11:55:29;;;;;;;;;;;16.60;70.40;;;;;;5078359;28;20394;-86
2022/02/20 11:58:13;;;;;;;;;;;16.40;70.00;;;;;;5078788;28;20348;-86
2022/02/20 12:00:39;;;;;;;;;;;16.30;71.20;;;;;;5078407;28;19908;-86
2022/02/20 12:03:05;;;;;;;;;;;16.20;71.20;;;;;;5060155;28;19908;-86
2022/02/20 12:05:32;;;;;;;;;;;16.00;71.20;;;;;;5078241;28;20050;-86
2022/02/20 12:07:58;;;;;;;;;;;15.90;71.80;;;;;;5078650;28;20388;-86
2022/02/20 12:10:24;;;;;;;;;;;15.90;72.60;;;;;;5078115;28;19952;-86
2022/02/20 12:12:54;;;;;;;;;;;15.80;72.70;;;;;;5078332;28;19999;-85
2022/02/20 12:15:33;;;;;;;;;;;15.70;72.30;;;;;;5078041;28;19912;-85
2022/02/20 12:18:11;;;;;;;;;;;15.70;72.90;;;;;;5077824;28;19908;-86
2022/02/20 12:20:52;;;;;;;;;;;15.50;73.40;;;;;;5078262;28;20272;-86
2022/02/20 12:23:37;;;;;;;;;;;15.50;73.40;;;;;;5077997;28;20043;-85
2022/02/20 12:26:03;;;;;;;;;;;15.40;73.80;;;;;;5077663;28;19908;-86
2022/02/20 12:28:33;;;;;;;;;;;15.40;74.30;;;;;;5077899;28;20268;-85
2022/02/20 12:31:09;;;;;;;;;;;15.30;74.00;;;;;;5077864;28;20311;-85
2022/02/20 12:33:36;;;;;;;;;;;15.30;74.50;;;;;;5077915;28;19969;-85
2022/02/20 12:36:02;;;;;;;;;;;15.30;74.50;;;;;;5077825;28;19920;-84
2022/02/20 12:38:28;;;;;;;;;;;15.30;74.00;;;;;;5078235;28;19908;-85
2022/02/20 12:40:54;;;;;;;;;;;15.30;74.30;;;;;;5077555;28;19920;-84
2022/02/20 12:43:19;;;;;;;;;;;15.20;74.50;;;;;;5077791;28;19965;-85
2022/02/20 12:45:46;;;;;;;;;;;15.20;74.70;;;;;;5076296;28;19999;-85
2022/02/20 12:48:14;;;;;;;;;;;15.20;74.80;;;;;;5065359;28;20456;-84
2022/02/20 12:50:41;;;;;;;;;;;15.20;74.30;;;;;;5077905;28;20401;-85
2022/02/20 12:53:08;;;;;;;;;;;15.20;74.30;;;;;;5077857;28;19909;-85
2022/02/20 12:55:35;;;;;;;;;;;15.20;75.60;;;;;;5077526;28;20038;-85
2022/02/20 12:58:03;;;;;;;;;;;15.40;75.70;;;;;;5078080;28;19996;-85
2022/02/20 13:00:33;;;;;;;;;;;15.60;74.50;;;;;;5077964;28;19909;-84
2022/02/20 13:02:59;;;;;;;;;;;15.80;72.90;;;;;;5059312;28;19958;-85
2022/02/20 13:05:31;;;;;;;;;;;16.00;72.70;;;;;;5077481;28;19915;-84
2022/02/20 13:07:58;;;;;;;;;;;16.10;72.80;;;;;;5077879;28;19942;-85
2022/02/20 13:10:26;;;;;;;;;;;16.10;72.80;;;;;;5077424;28;19912;-84
2022/02/20 13:12:52;;;;;;;;;;;15.90;71.70;;;;;;5077807;28;19916;-85
2022/02/20 13:15:18;;;;;;;;;;;15.80;72.10;;;;;;5059622;28;19919;-85
2022/02/20 13:17:57;;;;;;;;;;;15.70;72.70;;;;;;5077273;28;19913;-85
2022/02/20 13:20:26;;;;;;;;;;;15.70;72.60;;;;;;5065025;28;19954;-83
2022/02/20 13:22:51;;;;;;;;;;;15.70;72.30;;;;;;5077389;28;19976;-83
2022/02/20 13:25:18;;;;;;;;;;;15.60;72.10;;;;;;5077536;28;20367;-83
2022/02/20 13:27:47;;;;;;;;;;;15.60;72.10;;;;;;5077360;28;19909;-84
2022/02/20 13:30:24;;;;;;;;;;;15.50;72.60;;;;;;5077565;28;20386;-84
2022/02/20 13:32:50;;;;;;;;;;;15.50;73.20;;;;;;5076984;28;19909;-84
2022/02/20 13:35:28;;;;;;;;;;;15.50;73.40;;;;;;5077452;28;19912;-84
2022/02/20 13:37:54;;;;;;;;;;;15.40;72.50;;;;;;5078004;28;20011;-84
2022/02/20 13:40:19;;;;;;;;;;;15.30;72.80;;;;;;5081141;28;19944;-83
2022/02/20 13:42:58;;;;;;;;;;;15.20;73.20;;;;;;5080846;28;20379;-82
2022/02/20 13:45:23;;;;;;;;;;;15.10;72.70;;;;;;5081090;28;19920;-83
2022/02/20 13:47:49;;;;;;;;;;;15.00;72.90;;;;;;5067295;28;20359;-85
2022/02/20 13:50:19;;;;;;;;;;;14.90;73.40;;;;;;5081107;28;19972;-84
2022/02/20 13:52:45;;;;;;;;;;;14.90;73.40;;;;;;5080799;28;19931;-85
2022/02/20 13:55:29;;;;;;;;;;;14.80;74.00;;;;;;5080976;28;19912;-85
2022/02/20 13:57:55;;;;;;;;;;;14.80;74.40;;;;;;5069505;28;19908;-84
2022/02/20 14:00:22;;;;;;;;;;;14.80;74.60;;;;;;5080863;28;19955;-84
2022/02/20 14:02:48;;;;;;;;;;;14.80;74.10;;;;;;5080570;28;19952;-85
2022/02/20 14:05:21;;;;;;;;;;;14.80;74.40;;;;;;5080432;28;19912;-84
2022/02/20 14:07:46;;;;;;;;;;;14.80;74.10;;;;;;5080736;28;19908;-83
2022/02/20 14:10:14;;;;;;;;;;;14.80;74.50;;;;;;5080591;28;20348;-84
2022/02/20 14:12:41;;;;;;;;;;;14.70;74.40;;;;;;5080594;28;20287;-84
2022/02/20 14:15:07;;;;;;;;;;;14.70;75.00;;;;;;5080476;28;20357;-84
2022/02/20 14:17:52;;;;;;;;;;;14.60;75.00;;;;;;5080241;28;19909;-83
2022/02/20 14:20:18;;;;;;;;;;;14.60;75.10;;;;;;5080350;28;19951;-84